Terminal Aerodrome Forecast
Issued by NWS Paducah, KY

Home | Current Version | Previous Version | Graphics & Text | Print | Product List | Glossary On
Versions: 1 2 3 4 5 6 7 8 9 10 11 12 13 14 15 16 17 18
156
FTUS43 KPAH 171344 AAA
TAFEVV
TAF AMD
KEVV 171344Z 1714/1812 21011G17KT P6SM SCT012
      TEMPO 1714/1717 BKN012
     FM171800 22008G18KT P6SM VCSH BKN050
      TEMPO 1721/1723 -TSRA BKN030CB
     FM180100 27004KT P6SM SKC=

USA.gov is the U.S. government's official web portal to all federal, state and local government web resources and services.